Terminal Aerodrome Forecast
Issued by NWS

Home | Current Version | Previous Version | Graphics & Text | Print | Product List | Glossary On
Versions: 1 2 3 4 5 6 7 8 9 10 11 12 13 14 15 16 17 18 19 20 21 22 23
166
FTUS43 KICT 300812 AAA
TAFHUT
TAF AMD
KHUT 300812Z 3008/0106 31008KT P6SM OVC006
     FM301500 27014KT P6SM SCT035
     FM302000 26015G23KT P6SM SCT050
     FM010200 27014KT P6SM SCT150=

USA.gov is the U.S. government's official web portal to all federal, state and local government web resources and services.